aviador You're here:

KFDW Decoded Metar

FAIRFIELD COUNTY AIRPORT in SC, USA
Report Time2018-05-25 20:35:00
UTC Time2018-05-25 20:46:07
Flight Rules vfr VFR
WindCalm
Visibility9999 m
Phenomena:N/A
Clouds:Scattered 041 Hf
Scattered 050 Hf
Broken 120 Hf
Expected CloudBase > 1,200 ft AGL from Temp-Dew spread
Ceiling12,000 ft
Temp23°C (ISA +9)
Dew Point20°C (83% RH)
QNH1017 hPa
Density Alt1,818 ft
Elevation577 ft
Report Wrong Elevation
Raw Report
KFDW 252035Z AUTO 00000KT 10SM SCT041 SCT050 BKN120 23/20 A3002
RMK AO1 LTG DSNT SE=

Extra information for KFDW:More info

Metar Taf Metar & Taf Last 4 Metars F.Rules Stats Wind Profile Meteogram Temp Stats Airport Information Weather charts Add Link Nearby VenuesMetar ALERT Operation Metar Decoded Social comments

AIRNAV info for KFDW